Time;durP1;ratioP1;P1;durP2;ratioP2;P2;SDS_P1;SDS_P2;PMS_P1;PMS_P2;Temp;Humidity;BMP_temperature;BMP_pressure;BME280_temperature;BME280_humidity;BME280_pressure;Samples;Min_cycle;Max_cycle;Signal;HPM_P1;HPM_P2
2022/06/25 00:01:46;;;;;;;1.80;1.70;;;;;;;17.03;92.03;100311.53;5029858;27;20100;-68
2022/06/25 00:06:56;;;;;;;2.35;1.77;;;;;;;16.98;92.14;100313.97;5026074;27;20040;-69
2022/06/25 00:09:21;;;;;;;2.33;1.75;;;;;;;16.91;92.36;100321.91;5030352;27;20037;-70
2022/06/25 00:14:30;;;;;;;2.15;1.70;;;;;;;16.90;93.47;100325.59;5015640;27;20093;-71
2022/06/25 00:16:56;;;;;;;4.18;1.73;;;;;;;16.80;93.96;100320.53;5028219;27;20441;-70
2022/06/25 00:19:23;;;;;;;2.80;1.70;;;;;;;16.74;94.05;100329.31;5032650;27;20025;-70
2022/06/25 00:21:49;;;;;;;2.35;1.80;;;;;;;16.83;93.75;100322.00;4996395;27;20104;-71
2022/06/25 00:24:16;;;;;;;2.55;1.63;;;;;;;16.89;92.54;100321.25;5028376;27;20033;-70
2022/06/25 00:26:42;;;;;;;1.77;1.65;;;;;;;16.81;92.35;100330.19;5027752;27;20517;-70
2022/06/25 00:29:08;;;;;;;2.78;1.95;;;;;;;16.82;92.73;100337.22;5014408;27;20920;-70
2022/06/25 00:31:33;;;;;;;2.75;1.73;;;;;;;16.73;93.22;100346.34;5012706;27;20108;-69
2022/06/25 00:33:58;;;;;;;4.28;1.80;;;;;;;16.90;92.37;100335.47;5032226;27;20188;-69
2022/06/25 00:36:24;;;;;;;2.22;1.95;;;;;;;16.74;92.84;100339.16;5034481;27;20461;-69
2022/06/25 00:38:49;;;;;;;3.65;1.70;;;;;;;16.72;93.05;100344.69;5029495;27;20032;-70
2022/06/25 00:41:15;;;;;;;2.70;1.70;;;;;;;16.74;93.48;100339.16;5030792;27;20024;-69
2022/06/25 00:43:40;;;;;;;2.35;1.80;;;;;;;16.79;93.42;100345.63;5031792;27;20168;-71
2022/06/25 00:46:06;;;;;;;4.30;1.90;;;;;;;16.74;93.32;100342.66;4998933;27;20028;-68
2022/06/25 00:48:31;;;;;;;2.10;1.90;;;;;;;16.64;93.47;100345.63;5031681;27;20092;-69
2022/06/25 00:50:58;;;;;;;1.90;1.80;;;;;;;16.65;94.05;100349.13;5033341;27;20422;-70
2022/06/25 00:53:26;;;;;;;2.78;1.98;;;;;;;16.63;93.94;100348.47;4997727;27;20017;-69
2022/06/25 00:55:51;;;;;;;2.00;1.83;;;;;;;16.71;93.84;100361.75;5013091;28;20017;-69
2022/06/25 00:58:17;;;;;;;1.90;1.80;;;;;;;16.80;93.38;100370.47;5006898;27;20502;-70
2022/06/25 01:00:43;;;;;;;1.80;1.70;;;;;;;16.83;93.19;100368.25;4995879;27;20561;-70
2022/06/25 01:03:08;;;;;;;2.03;1.92;;;;;;;16.74;92.99;100363.22;5014749;27;20108;-70
2022/06/25 01:05:33;;;;;;;1.83;1.70;;;;;;;16.66;92.70;100358.78;5032309;27;20093;-68
2022/06/25 01:07:59;;;;;;;2.13;1.92;;;;;;;16.56;93.33;100366.28;5016950;27;20541;-69
2022/06/25 01:10:24;;;;;;;6.85;1.80;;;;;;;16.56;93.52;100363.59;5016735;27;20680;-69
2022/06/25 01:12:50;;;;;;;1.95;1.63;;;;;;;16.64;93.17;100360.84;4999072;27;20020;-69
2022/06/25 01:15:17;;;;;;;2.53;1.83;;;;;;;16.54;93.28;100370.94;5034568;27;20338;-71
2022/06/25 01:17:50;;;;;;;4.13;2.15;;;;;;;16.61;93.53;100375.38;4999938;27;20056;-69
2022/06/25 01:20:16;;;;;;;;;;;;;;;16.59;93.35;100374.72;5006787;27;20864;-70
2022/06/25 01:22:42;;;;;;;1.77;1.67;;;;;;;16.49;93.68;100391.03;5038943;27;19906;-70
2022/06/25 01:25:08;;;;;;;1.73;1.63;;;;;;;16.59;92.96;100380.06;5035649;27;20047;-69
2022/06/25 01:27:33;;;;;;;2.50;2.00;;;;;;;16.52;93.48;100389.03;5018687;27;20375;-70
2022/06/25 01:29:59;;;;;;;2.88;1.52;;;;;;;16.49;93.44;100385.69;5034076;27;20864;-70
2022/06/25 01:32:25;;;;;;;3.55;1.55;;;;;;;16.52;92.93;100383.69;5035613;27;20070;-71
2022/06/25 01:34:50;;;;;;;2.53;1.80;;;;;;;16.55;93.06;100380.63;5011443;27;20097;-70
2022/06/25 01:37:15;;;;;;;2.83;1.60;;;;;;;16.49;92.94;100391.03;5014975;27;20016;-69
2022/06/25 01:39:41;;;;;;;2.85;1.60;;;;;;;16.50;92.93;100397.22;5009107;27;19997;-69
2022/06/25 01:42:58;;;;;;;5.43;1.75;;;;;;;16.49;92.89;100401.72;5030463;27;20378;-70
2022/06/25 01:44:52;;;;;;;1.98;1.80;;;;;;;16.43;92.35;100397.13;5021614;27;20691;-70
2022/06/25 01:47:17;;;;;;;2.08;1.60;;;;;;;16.41;92.44;100396.50;5036596;27;20036;-70
2022/06/25 01:49:42;;;;;;;3.60;1.80;;;;;;;16.46;92.50;100396.75;5036631;27;20127;-69
2022/06/25 01:52:08;;;;;;;1.70;1.60;;;;;;;16.37;93.11;100403.22;5037138;27;21003;-69
2022/06/25 01:54:33;;;;;;;3.65;1.83;;;;;;;16.39;93.47;100411.84;5035295;27;20008;-72
2022/06/25 01:56:59;;;;;;;2.10;2.00;;;;;;;16.33;93.11;100404.59;5051833;27;20009;-69
2022/06/25 01:59:24;;;;;;;2.90;1.80;;;;;;;16.28;93.36;100409.63;5000009;27;20017;-69
2022/06/25 02:01:49;;;;;;;1.80;1.70;;;;;;;16.35;93.43;100404.41;5017062;27;20428;-69
2022/06/25 02:04:15;;;;;;;1.70;1.60;;;;;;;16.22;93.45;100411.19;5017851;27;20024;-69
2022/06/25 02:06:40;;;;;;;3.58;1.63;;;;;;;16.45;92.60;100416.44;5036046;27;20013;-69
2022/06/25 02:09:05;;;;;;;4.95;1.75;;;;;;;16.31;92.64;100409.25;5034486;27;20702;-70
2022/06/25 02:11:31;;;;;;;5.40;1.67;;;;;;;16.30;93.35;100412.94;5053554;27;20024;-72
2022/06/25 02:13:56;;;;;;;1.73;1.63;;;;;;;16.26;93.64;100414.34;5026574;27;20897;-70
2022/06/25 02:16:22;;;;;;;1.98;1.77;;;;;;;16.26;93.64;100414.34;5020177;27;20024;-70
2022/06/25 02:18:47;;;;;;;3.00;1.90;;;;;;;16.26;93.96;100412.50;4997959;27;20025;-69
2022/06/25 02:21:13;;;;;;;1.92;1.80;;;;;;;16.24;94.24;100417.16;5019794;27;20009;-70
2022/06/25 02:23:39;;;;;;;1.67;1.50;;;;;;;16.24;94.79;100425.19;5009582;27;20001;-70
2022/06/25 02:26:04;;;;;;;2.05;1.83;;;;;;;16.20;94.58;100423.06;5030352;27;20004;-70
2022/06/25 02:28:29;;;;;;;3.42;1.65;;;;;;;16.19;94.76;100422.25;5000880;27;20040;-70
2022/06/25 02:30:55;;;;;;;2.55;1.60;;;;;;;16.23;94.73;100423.53;5034684;27;20015;-69
2022/06/25 02:33:20;;;;;;;1.70;1.60;;;;;;;16.27;95.04;100413.31;5055621;27;20956;-69
2022/06/25 02:35:46;;;;;;;4.28;1.70;;;;;;;16.35;94.74;100415.91;5034744;27;20009;-70
2022/06/25 02:38:12;;;;;;;3.80;1.60;;;;;;;16.30;93.97;100419.13;5000221;27;20027;-70
2022/06/25 02:40:37;;;;;;;2.55;1.58;;;;;;;16.25;94.24;100428.69;5001634;27;20012;-69
2022/06/25 02:43:04;;;;;;;3.33;1.90;;;;;;;16.22;94.02;100429.06;5054292;27;20032;-69
2022/06/25 02:45:29;;;;;;;1.85;1.60;;;;;;;16.24;93.98;100429.69;5034540;27;20347;-69
2022/06/25 02:47:56;;;;;;;1.60;1.50;;;;;;;16.18;93.32;100433.09;5014434;27;20640;-70
2022/06/25 02:50:22;;;;;;;2.83;1.80;;;;;;;16.22;93.17;100442.41;5023439;27;20028;-70
2022/06/25 02:52:47;;;;;;;1.50;1.50;;;;;;;16.14;93.24;100441.47;5041290;27;20135;-70
2022/06/25 02:55:13;;;;;;;1.67;1.55;;;;;;;16.14;93.70;100441.47;5053307;27;20275;-70
2022/06/25 03:00:22;;;;;;;3.05;1.90;;;;;;;16.06;93.85;100438.88;5022807;27;20481;-70
2022/06/25 03:02:48;;;;;;;4.30;1.67;;;;;;;15.99;93.76;100443.28;5033697;27;20940;-70
2022/06/25 03:05:13;;;;;;;3.70;1.90;;;;;;;16.01;93.99;100446.59;5016448;27;20391;-70
2022/06/25 03:07:39;;;;;;;1.60;1.60;;;;;;;16.00;94.40;100444.91;5034771;27;20071;-70
2022/06/25 03:10:05;;;;;;;2.47;1.60;;;;;;;15.99;94.14;100453.09;5034990;27;20008;-70
2022/06/25 03:12:31;;;;;;;1.70;1.60;;;;;;;16.04;93.51;100450.75;5033576;27;20048;-71
2022/06/25 03:14:56;;;;;;;2.40;1.63;;;;;;;16.03;93.14;100452.56;5015237;27;20060;-71
2022/06/25 03:17:22;;;;;;;1.70;1.60;;;;;;;16.04;93.79;100448.88;5000046;27;20088;-71
2022/06/25 03:19:47;;;;;;;4.30;1.90;;;;;;;16.02;93.80;100448.25;5020183;27;20013;-69
2022/06/25 03:22:12;;;;;;;4.00;1.63;;;;;;;15.99;93.92;100453.97;5047116;27;20016;-69
2022/06/25 03:24:38;;;;;;;3.80;1.60;;;;;;;15.98;94.26;100452.28;5033840;27;20851;-70
2022/06/25 03:27:04;;;;;;;3.35;1.67;;;;;;;15.94;94.35;100451.81;5014442;27;20788;-71
2022/06/25 03:29:29;;;;;;;1.70;1.60;;;;;;;15.96;94.40;100448.94;4999010;28;20036;-69
2022/06/25 03:31:56;;;;;;;6.72;1.95;;;;;;;16.03;93.80;100460.56;4980967;28;20018;-70
2022/06/25 03:34:21;;;;;;;1.70;1.60;;;;;;;16.04;93.70;100464.91;4994076;28;20030;-70
2022/06/25 03:36:46;;;;;;;2.58;1.80;;;;;;;15.99;93.80;100469.13;5004922;28;20020;-70
2022/06/25 03:39:12;;;;;;;2.25;1.70;;;;;;;16.04;93.80;100470.25;5010325;28;20056;-70
2022/06/25 03:41:37;;;;;;;1.58;1.50;;;;;;;16.04;93.50;100475.59;5007138;28;20020;-70
2022/06/25 03:44:08;;;;;;;2.33;1.70;;;;;;;16.04;93.68;100478.25;5016104;27;20013;-69
2022/06/25 03:46:34;;;;;;;2.42;1.83;;;;;;;16.08;93.54;100481.41;4998972;27;20016;-69
2022/06/25 03:49:00;;;;;;;1.70;1.60;;;;;;;16.02;93.84;100477.63;5051509;27;20127;-70
2022/06/25 03:51:26;;;;;;;2.00;1.90;;;;;;;16.12;93.54;100482.72;5001606;27;20009;-70
2022/06/25 03:53:51;;;;;;;1.92;1.80;;;;;;;16.10;93.60;100484.72;5033632;27;20005;-70
2022/06/25 03:56:17;;;;;;;2.35;1.80;;;;;;;16.05;93.61;100485.25;5051847;27;20025;-69
2022/06/25 03:58:42;;;;;;;2.10;1.70;;;;;;;16.08;93.92;100481.41;5034002;27;20019;-69
2022/06/25 04:01:08;;;;;;;3.63;1.83;;;;;;;16.05;94.00;100485.25;5016353;27;20613;-70
2022/06/25 04:03:33;;;;;;;1.55;1.55;;;;;;;16.06;94.18;100481.59;5014493;27;20759;-71
2022/06/25 04:05:58;;;;;;;2.33;1.70;;;;;;;16.14;94.36;100488.69;5014598;27;20001;-69
2022/06/25 04:08:24;;;;;;;5.93;1.65;;;;;;;16.14;94.54;100499.34;5032960;27;20048;-69
2022/06/25 04:10:49;;;;;;;2.53;1.75;;;;;;;16.19;94.67;100493.47;5032219;27;20044;-70
2022/06/25 04:13:15;;;;;;;1.98;1.60;;;;;;;16.22;94.18;100485.94;5016723;27;20020;-70
2022/06/25 04:15:41;;;;;;;2.22;1.48;;;;;;;16.22;93.73;100490.47;5041848;27;20382;-71
2022/06/25 04:18:06;;;;;;;2.10;1.40;;;;;;;16.19;93.69;100485.47;5018213;27;20004;-72
2022/06/25 04:20:32;;;;;;;6.03;1.90;;;;;;;16.24;93.74;100483.09;5025274;27;20056;-69
2022/06/25 04:22:58;;;;;;;1.73;1.63;;;;;;;16.27;93.77;100478.25;5010994;27;20024;-69
2022/06/25 04:25:23;;;;;;;2.45;1.80;;;;;;;16.34;93.57;100486.31;5035609;27;20416;-70
2022/06/25 04:30:43;;;;;;;1.80;1.60;;;;;;;16.41;93.37;100489.97;4981284;27;20117;-69
2022/06/25 04:33:09;;;;;;;1.90;1.70;;;;;;;16.45;93.12;100490.41;5038830;27;20762;-69
2022/06/25 04:35:34;;;;;;;2.13;1.60;;;;;;;16.51;92.95;100491.53;5037120;27;20965;-70
2022/06/25 04:38:00;;;;;;;2.35;1.80;;;;;;;16.56;92.92;100486.47;5036783;27;20838;-69
2022/06/25 04:40:28;;;;;;;1.77;1.48;;;;;;;16.53;93.14;100490.34;5035847;27;20020;-69
2022/06/25 04:42:53;;;;;;;1.83;1.60;;;;;;;16.62;92.70;100491.06;5003370;27;21007;-69
2022/06/25 04:45:19;;;;;;;2.42;1.70;;;;;;;16.69;92.17;100492.00;5037772;27;20020;-72
2022/06/25 04:47:44;;;;;;;1.85;1.80;;;;;;;16.72;92.15;100488.97;5036169;27;20897;-70
2022/06/25 04:50:10;;;;;;;1.85;1.75;;;;;;;16.71;92.25;100483.81;5043020;27;20063;-71
2022/06/25 04:52:35;;;;;;;1.80;1.70;;;;;;;16.73;91.65;100490.63;5037693;27;20043;-71
2022/06/25 04:55:00;;;;;;;2.05;1.80;;;;;;;16.80;92.39;100490.72;5036838;27;20906;-72
2022/06/25 04:57:26;;;;;;;4.05;1.75;;;;;;;16.86;92.10;100489.16;5038898;27;20381;-71
2022/06/25 04:59:51;;;;;;;3.30;1.63;;;;;;;16.88;91.12;100496.03;5033803;27;20255;-71
2022/06/25 05:02:17;;;;;;;2.05;1.60;;;;;;;16.96;91.09;100495.09;5051851;27;20768;-71
2022/06/25 05:04:42;;;;;;;4.82;1.52;;;;;;;17.03;90.85;100493.31;5035448;27;20073;-72
2022/06/25 05:07:07;;;;;;;1.80;1.70;;;;;;;17.09;91.05;100489.06;5020822;27;20013;-71
2022/06/25 05:09:33;;;;;;;2.58;2.00;;;;;;;17.15;91.10;100501.72;5018927;27;20482;-72
2022/06/25 05:11:58;;;;;;;1.80;1.50;;;;;;;17.12;90.62;100507.44;5035288;27;20040;-72
2022/06/25 05:14:24;;;;;;;3.03;1.90;;;;;;;17.22;90.33;100496.44;5021970;27;19997;-73
2022/06/25 05:16:49;;;;;;;1.98;1.83;;;;;;;17.22;90.34;100507.13;5021061;27;20004;-74
2022/06/25 05:19:15;;;;;;;2.80;1.75;;;;;;;17.35;90.22;100501.97;5017778;27;20506;-72
2022/06/25 05:21:40;;;;;;;1.95;1.85;;;;;;;17.40;89.77;100496.88;5040324;27;20393;-71
2022/06/25 05:24:06;;;;;;;2.70;1.70;;;;;;;17.40;89.61;100504.91;5024024;27;20028;-71
2022/06/25 05:26:31;;;;;;;1.80;1.70;;;;;;;17.37;90.00;100510.63;5017050;27;20016;-71
2022/06/25 05:28:57;;;;;;;6.40;1.90;;;;;;;17.36;91.44;100510.81;5015043;27;20805;-72
2022/06/25 05:31:22;;;;;;;2.47;2.05;;;;;;;17.49;91.27;100514.47;5033134;27;20024;-71
2022/06/25 05:33:49;;;;;;;3.38;1.85;;;;;;;17.46;89.45;100517.53;5000270;27;20907;-70
2022/06/25 05:36:14;;;;;;;3.05;1.77;;;;;;;17.54;89.08;100523.78;5032809;27;20077;-72
2022/06/25 05:38:40;;;;;;;1.90;1.80;;;;;;;17.64;89.24;100524.28;5000285;27;20086;-70
2022/06/25 05:41:08;;;;;;;2.63;1.95;;;;;;;17.57;88.92;100529.59;5018783;27;20169;-71
2022/06/25 05:43:36;;;;;;;2.22;2.08;;;;;;;17.57;90.14;100531.44;5017580;27;20442;-71
2022/06/25 05:46:02;;;;;;;2.00;1.75;;;;;;;17.62;90.17;100532.53;5034194;27;20022;-70
2022/06/25 05:48:27;;;;;;;2.20;1.80;;;;;;;17.67;89.87;100532.78;5033790;27;20024;-70
2022/06/25 05:50:53;;;;;;;3.00;1.90;;;;;;;17.79;89.25;100535.78;5043484;27;20093;-71
2022/06/25 05:53:18;;;;;;;3.22;1.90;;;;;;;17.93;89.40;100539.47;4997426;27;20059;-71
2022/06/25 05:55:44;;;;;;;2.72;1.90;;;;;;;17.93;89.29;100530.63;4982348;27;20031;-71
2022/06/25 05:58:09;;;;;;;3.70;2.20;;;;;;;17.96;88.84;100543.63;4980085;27;20029;-70
2022/06/25 06:00:35;;;;;;;2.53;1.80;;;;;;;17.93;89.16;100546.69;5014535;27;20836;-69
2022/06/25 06:03:00;;;;;;;4.10;1.80;;;;;;;17.92;88.85;100547.69;5013360;27;20354;-71
2022/06/25 06:05:26;;;;;;;2.35;2.05;;;;;;;18.03;89.23;100549.88;5008162;27;20906;-70
2022/06/25 06:07:51;;;;;;;2.35;2.15;;;;;;;18.17;87.81;100553.50;5012178;27;20068;-70
2022/06/25 06:10:17;;;;;;;2.00;1.90;;;;;;;18.25;87.53;100555.25;5010668;27;20116;-71
2022/06/25 06:12:42;;;;;;;1.88;1.77;;;;;;;18.41;87.05;100554.97;5012243;27;20048;-70
2022/06/25 06:15:09;;;;;;;2.10;2.00;;;;;;;18.44;86.94;100553.75;5003099;27;20766;-70
2022/06/25 06:17:35;;;;;;;1.88;1.77;;;;;;;18.46;86.70;100554.41;5032242;27;20143;-72
2022/06/25 06:20:00;;;;;;;2.88;1.88;;;;;;;18.62;85.92;100555.97;5027093;27;20024;-71
2022/06/25 06:22:27;;;;;;;2.10;2.00;;;;;;;18.67;86.81;100556.19;5035757;27;20907;-70
2022/06/25 06:24:52;;;;;;;2.00;1.90;;;;;;;18.65;87.52;100555.56;5051515;27;20364;-71
2022/06/25 06:27:18;;;;;;;1.90;1.80;;;;;;;18.71;86.41;100554.78;5018100;27;20900;-70
2022/06/25 06:29:43;;;;;;;1.98;1.88;;;;;;;18.80;86.37;100553.63;4993429;27;20892;-71
2022/06/25 06:32:09;;;;;;;2.80;1.88;;;;;;;18.83;85.71;100558.56;5033320;27;20031;-70
2022/06/25 06:34:34;;;;;;;1.92;1.80;;;;;;;18.86;83.91;100555.50;5020682;27;20021;-69
2022/06/25 06:37:00;;;;;;;2.10;1.77;;;;;;;18.94;82.28;100557.25;5055159;27;20240;-69
2022/06/25 06:39:25;;;;;;;2.67;1.80;;;;;;;18.99;83.03;100557.47;5053862;27;20444;-70
2022/06/25 06:41:50;;;;;;;2.90;2.00;;;;;;;19.04;84.56;100560.41;5012720;27;20189;-70
2022/06/25 06:44:16;;;;;;;3.38;1.88;;;;;;;19.10;84.31;100550.72;4997926;27;20374;-72
2022/06/25 06:46:41;;;;;;;4.15;1.98;;;;;;;19.40;82.68;100561.19;5015045;27;20040;-72
2022/06/25 06:49:07;;;;;;;4.20;2.10;;;;;;;19.65;79.33;100561.50;5036605;27;20037;-72
2022/06/25 18:00:33;;;;;;;7.65;3.67;;;;;;;24.92;61.53;100351.44;5101895;27;20422;-79
2022/06/25 18:02:58;;;;;;;12.18;9.88;;;;;;;24.87;61.54;100359.44;5036356;27;20115;-79
2022/06/25 18:05:23;;;;;;;7.65;5.53;;;;;;;24.80;64.13;100359.59;4983125;27;20085;-73
2022/06/25 18:07:49;;;;;;;9.35;5.13;;;;;;;24.76;65.10;100363.88;5038135;27;20009;-77
2022/06/25 18:10:15;;;;;;;18.25;14.13;;;;;;;24.52;66.67;100365.75;5001669;27;20111;-77
2022/06/25 18:12:41;;;;;;;10.82;8.07;;;;;;;24.49;66.75;100366.25;5019200;27;20013;-76
2022/06/25 18:15:07;;;;;;;9.93;5.88;;;;;;;24.41;67.11;100364.75;5030809;27;20079;-76
2022/06/25 18:17:33;;;;;;;2.85;2.08;;;;;;;24.29;66.79;100367.44;5035880;27;20020;-75
2022/06/25 18:19:58;;;;;;;3.60;2.15;;;;;;;24.28;66.34;100373.94;5035620;27;20032;-77
2022/06/25 18:22:24;;;;;;;9.85;2.25;;;;;;;24.15;66.62;100372.28;5063906;27;20521;-77
2022/06/25 18:24:49;;;;;;;7.75;3.72;;;;;;;24.10;67.11;100372.19;5061996;27;20119;-78
2022/06/25 18:27:15;;;;;;;12.82;2.72;;;;;;;24.07;67.15;100371.81;5047290;27;20017;-77
2022/06/25 18:29:41;;;;;;;5.05;2.60;;;;;;;24.04;67.22;100364.19;5074527;27;20033;-73
2022/06/25 18:32:07;;;;;;;10.38;2.17;;;;;;;24.00;67.24;100372.78;5050887;27;20081;-75
2022/06/25 18:34:33;;;;;;;8.95;2.10;;;;;;;23.85;67.93;100366.97;5056382;27;20209;-74
2022/06/25 18:36:58;;;;;;;7.15;2.05;;;;;;;23.71;68.45;100371.78;5049625;27;20048;-73
2022/06/25 18:39:24;;;;;;;2.50;1.73;;;;;;;23.70;68.78;100363.91;5024895;27;20039;-70
2022/06/25 18:41:49;;;;;;;4.40;2.97;;;;;;;23.61;68.59;100372.34;5052250;27;20019;-72
2022/06/25 18:44:15;;;;;;;4.07;2.30;;;;;;;23.59;68.45;100363.66;5043184;27;20201;-75
2022/06/25 18:46:40;;;;;;;6.55;2.33;;;;;;;23.48;68.53;100359.06;5048715;27;20005;-75
2022/06/25 18:49:06;;;;;;;11.02;2.75;;;;;;;23.44;68.45;100364.09;5042465;27;20017;-76
2022/06/25 18:51:34;;;;;;;6.72;2.75;;;;;;;23.28;68.86;100362.91;5017331;27;20075;-71
2022/06/25 18:53:59;;;;;;;8.55;2.10;;;;;;;23.19;69.51;100369.66;5033277;27;20016;-72
2022/06/25 18:56:25;;;;;;;5.20;2.30;;;;;;;23.07;69.46;100369.59;5026145;27;20024;-72
2022/06/25 18:58:50;;;;;;;4.70;1.90;;;;;;;23.05;69.77;100373.56;5049828;27;20040;-74
2022/06/25 19:01:16;;;;;;;4.35;2.08;;;;;;;22.96;70.82;100375.78;5062683;27;20020;-74
2022/06/25 19:03:41;;;;;;;10.48;4.80;;;;;;;23.01;70.63;100372.38;5045107;27;20009;-74
2022/06/25 19:06:07;;;;;;;9.40;7.45;;;;;;;23.07;70.55;100377.69;5040556;27;20356;-77
2022/06/25 19:08:35;;;;;;;12.88;6.10;;;;;;;23.11;70.42;100372.66;5070883;27;20020;-76
2022/06/25 19:11:01;;;;;;;6.03;3.17;;;;;;;23.14;70.49;100377.63;5066840;27;20256;-77
2022/06/25 19:13:27;;;;;;;5.05;2.80;;;;;;;23.09;70.96;100374.78;5053430;27;20508;-76
2022/06/25 19:15:52;;;;;;;3.72;2.40;;;;;;;23.05;71.17;100381.69;5039311;27;20036;-76
2022/06/25 19:18:18;;;;;;;5.18;2.00;;;;;;;23.05;71.25;100369.00;5052909;27;20025;-75
2022/06/25 19:20:43;;;;;;;3.42;2.42;;;;;;;22.96;71.26;100370.38;5058600;27;20025;-72
2022/06/25 19:23:09;;;;;;;4.10;2.15;;;;;;;22.87;71.40;100369.88;5031745;27;20416;-76
2022/06/25 19:25:34;;;;;;;5.57;2.30;;;;;;;22.79;71.10;100381.78;5009593;28;20434;-78
2022/06/25 19:28:00;;;;;;;3.55;2.00;;;;;;;22.63;71.38;100382.38;5031640;27;20843;-76
2022/06/25 19:30:27;;;;;;;2.90;1.83;;;;;;;22.39;71.65;100379.56;5065002;27;20073;-75
2022/06/25 19:32:52;;;;;;;6.40;2.10;;;;;;;22.27;72.66;100376.75;5064397;27;20347;-74
2022/06/25 19:35:18;;;;;;;3.42;2.10;;;;;;;22.03;73.79;100383.00;5055266;27;20788;-76
2022/06/25 19:37:43;;;;;;;6.00;2.13;;;;;;;21.86;74.00;100386.25;5020170;27;20100;-74
2022/06/25 19:40:09;;;;;;;3.13;1.90;;;;;;;21.70;74.79;100387.63;5028950;27;20025;-74
2022/06/25 19:42:35;;;;;;;2.97;1.92;;;;;;;21.61;75.83;100384.38;5046769;27;20013;-76
2022/06/25 19:45:05;;;;;;;10.45;2.42;;;;;;;21.55;75.91;100395.22;5021357;27;20013;-74
2022/06/25 19:47:30;;;;;;;4.75;2.28;;;;;;;21.46;76.40;100394.59;5036733;27;20009;-75
2022/06/25 19:49:56;;;;;;;3.05;2.75;;;;;;;21.38;76.24;100395.69;5041272;27;20794;-74
2022/06/25 19:52:23;;;;;;;6.55;5.05;;;;;;;21.35;76.15;100389.91;5037684;27;20036;-75
2022/06/25 19:54:50;;;;;;;4.68;2.80;;;;;;;21.27;76.01;100402.59;5017503;27;20017;-73
2022/06/25 19:57:15;;;;;;;5.22;2.50;;;;;;;21.22;76.75;100401.59;5025344;27;20279;-75
2022/06/25 19:59:41;;;;;;;4.00;2.15;;;;;;;21.07;77.25;100400.00;5017623;27;20399;-74
2022/06/25 20:02:07;;;;;;;6.10;2.50;;;;;;;21.04;78.51;100413.06;5021642;27;20032;-75
2022/06/25 20:04:32;;;;;;;8.05;2.35;;;;;;;20.92;79.09;100411.03;5027748;27;20056;-71
2022/06/25 20:06:58;;;;;;;3.17;2.22;;;;;;;20.72;79.88;100416.50;5017072;27;20029;-73
2022/06/25 20:09:24;;;;;;;4.50;2.30;;;;;;;20.65;80.02;100415.66;5022116;27;20493;-74
2022/06/25 20:11:49;;;;;;;5.65;2.85;;;;;;;20.65;79.39;100418.34;5006161;27;20266;-74
2022/06/25 20:14:17;;;;;;;2.38;2.28;;;;;;;20.63;78.99;100416.91;5019621;27;20086;-74
2022/06/25 20:16:43;;;;;;;3.47;2.20;;;;;;;20.58;79.39;100422.91;5038659;27;20798;-74
2022/06/25 20:19:08;;;;;;;5.70;2.40;;;;;;;20.45;79.93;100418.41;5029145;27;20032;-75
2022/06/25 20:21:34;;;;;;;3.80;2.40;;;;;;;20.43;79.52;100417.78;5007419;27;20226;-73
2022/06/25 20:24:00;;;;;;;6.63;2.47;;;;;;;20.44;79.01;100408.69;5013491;27;20426;-75
2022/06/25 20:26:25;;;;;;;2.75;2.20;;;;;;;20.34;79.96;100413.69;5038632;27;20005;-71
2022/06/25 20:28:50;;;;;;;2.33;2.13;;;;;;;20.34;80.12;100419.88;5037422;27;20104;-73
2022/06/25 20:31:16;;;;;;;3.90;2.30;;;;;;;20.30;79.73;100421.31;5031883;27;20274;-73
2022/06/25 20:33:41;;;;;;;4.28;2.30;;;;;;;20.20;79.43;100405.63;4993874;27;20892;-71
2022/06/25 20:36:07;;;;;;;3.47;2.35;;;;;;;20.25;79.55;100415.75;5013711;27;20104;-72
2022/06/25 20:38:32;;;;;;;6.47;2.60;;;;;;;20.20;79.60;100419.06;4997400;27;20411;-71
2022/06/25 20:40:58;;;;;;;2.85;2.60;;;;;;;20.14;80.03;100422.59;5029525;27;21078;-71
2022/06/25 20:43:23;;;;;;;4.75;2.50;;;;;;;20.14;79.73;100411.84;5023396;27;20145;-72
2022/06/25 20:45:49;;;;;;;3.08;2.70;;;;;;;20.08;80.15;100420.75;4996153;27;20986;-73
2022/06/25 20:48:14;;;;;;;2.25;2.05;;;;;;;20.13;80.22;100415.56;4995853;27;20210;-72
2022/06/25 20:50:39;;;;;;;3.13;2.90;;;;;;;20.08;80.66;100410.00;5035062;27;20027;-72
2022/06/25 20:53:05;;;;;;;6.63;3.60;;;;;;;20.05;80.96;100410.38;5010005;27;20033;-69
2022/06/25 20:55:30;;;;;;;7.22;3.42;;;;;;;20.07;80.76;100408.34;5003905;27;20357;-70
2022/06/25 20:57:56;;;;;;;2.85;2.65;;;;;;;20.01;80.51;100410.00;5028534;27;20690;-72
2022/06/25 21:00:21;;;;;;;2.88;2.53;;;;;;;19.99;80.36;100408.53;5018416;27;20464;-72
2022/06/25 21:08:16;;;;;;;7.82;3.65;;;;;;;19.94;80.42;100398.44;5021279;27;20389;-72
2022/06/25 21:10:41;;;;;;;5.68;2.70;;;;;;;19.92;81.13;100399.66;5016129;27;20961;-73
2022/06/25 21:13:07;;;;;;;6.72;2.50;;;;;;;19.86;81.98;100396.75;5017564;27;20434;-72
2022/06/25 21:15:33;;;;;;;3.88;2.60;;;;;;;19.77;82.24;100400.66;5004130;27;20819;-70
2022/06/25 21:17:58;;;;;;;8.82;2.70;;;;;;;19.76;82.61;100404.38;5005914;27;20407;-73
2022/06/25 21:20:24;;;;;;;7.50;2.75;;;;;;;19.78;82.59;100399.63;5002139;27;20518;-73
2022/06/25 21:22:50;;;;;;;6.53;2.33;;;;;;;19.64;82.87;100393.44;5000832;28;20032;-73
2022/06/25 21:25:15;;;;;;;2.83;2.60;;;;;;;19.63;82.56;100398.97;4998831;27;20119;-71
2022/06/25 21:27:41;;;;;;;5.32;2.38;;;;;;;19.67;82.08;100394.84;5027609;27;20984;-71
2022/06/25 21:30:07;;;;;;;5.18;2.50;;;;;;;19.60;81.89;100399.41;5026893;27;20493;-74
2022/06/25 21:32:32;;;;;;;4.97;2.50;;;;;;;19.58;81.94;100398.78;4993451;27;20251;-73
2022/06/25 21:34:58;;;;;;;3.72;2.60;;;;;;;19.57;82.20;100403.31;5011066;27;20025;-73
2022/06/25 21:37:23;;;;;;;7.95;2.97;;;;;;;19.50;82.42;100408.69;5028853;27;20330;-69
2022/06/25 21:39:49;;;;;;;2.45;2.28;;;;;;;19.52;82.33;100406.63;5027319;27;20956;-70
2022/06/25 21:42:14;;;;;;;3.17;2.72;;;;;;;19.50;82.54;100403.31;5008016;27;20917;-72
2022/06/25 21:44:40;;;;;;;6.20;2.40;;;;;;;19.46;83.03;100399.41;5025534;27;20013;-72
2022/06/25 21:47:05;;;;;;;3.15;2.78;;;;;;;19.49;82.82;100401.66;4990828;27;20032;-72
2022/06/25 21:49:30;;;;;;;6.72;2.30;;;;;;;19.44;82.71;100411.34;5007801;27;20021;-72
2022/06/25 21:51:56;;;;;;;4.68;2.75;;;;;;;19.45;82.87;100399.59;4986700;28;20910;-71
2022/06/25 21:54:21;;;;;;;5.22;2.40;;;;;;;19.41;83.06;100407.22;5008356;27;20017;-71
2022/06/25 21:56:47;;;;;;;8.70;2.78;;;;;;;19.42;nan;100406.19;5006733;27;20407;-73
2022/06/25 21:59:12;;;;;;;4.82;2.30;;;;;;;19.34;83.00;100404.50;5007580;28;20025;-72
2022/06/25 22:01:38;;;;;;;5.03;2.40;;;;;;;19.30;82.48;100407.81;5026160;27;20132;-73
2022/06/25 22:04:03;;;;;;;2.22;2.13;;;;;;;19.28;82.16;100401.84;5025099;27;20061;-72
2022/06/25 22:06:29;;;;;;;2.95;2.47;;;;;;;19.27;81.97;100408.22;5002326;28;20330;-70
2022/06/25 22:08:54;;;;;;;9.82;2.67;;;;;;;19.17;81.99;100409.44;5007550;28;20411;-72
2022/06/25 22:11:20;;;;;;;2.70;2.30;;;;;;;19.21;81.77;100407.19;4971262;28;20824;-74
2022/06/25 22:13:45;;;;;;;2.55;2.35;;;;;;;19.17;81.91;100409.44;4989245;28;20512;-73
2022/06/25 22:16:11;;;;;;;3.58;3.33;;;;;;;19.17;81.76;100408.59;5005841;28;20165;-74
2022/06/25 22:18:36;;;;;;;5.35;3.03;;;;;;;19.19;81.45;100399.34;5025506;28;20013;-70
2022/06/25 22:21:02;;;;;;;3.47;3.17;;;;;;;19.15;81.35;100413.34;5004461;28;21036;-71
2022/06/25 22:23:28;;;;;;;2.95;2.63;;;;;;;19.11;81.38;100412.09;5006002;28;20021;-73
2022/06/25 22:25:54;;;;;;;2.40;2.22;;;;;;;19.11;81.05;100410.25;4985258;28;20024;-72
2022/06/25 22:28:20;;;;;;;2.97;2.20;;;;;;;19.16;80.28;100407.78;4987200;28;20514;-72
2022/06/25 22:30:46;;;;;;;2.58;2.30;;;;;;;19.17;80.14;100401.38;5003834;28;20009;-71
2022/06/25 22:33:12;;;;;;;5.07;2.58;;;;;;;19.17;80.38;100393.34;5003234;28;20606;-73
2022/06/25 22:35:38;;;;;;;3.45;2.40;;;;;;;19.21;80.52;100408.00;4998785;28;20022;-73
2022/06/25 22:38:03;;;;;;;3.90;2.30;;;;;;;19.19;80.77;100396.66;5019480;27;20032;-73
2022/06/25 22:40:30;;;;;;;2.85;2.60;;;;;;;19.21;81.11;100399.94;5022934;27;20028;-71
2022/06/25 22:42:55;;;;;;;4.60;3.00;;;;;;;19.22;81.46;100401.59;5022789;28;20024;-72